Clearfield, PA

6:37 AM EST on February 13, 2016 (GMT -0500)
Twinoaks | | Change Station
CLOSE
Current Station
Personal Weather Station
Location: Curwensville, PA
Elevation: 1493 ft
Nearby Weather Stations
Active Advisory: Wind Chill Advisory

Elev 1493 ft 40.99 °N, 78.53 °W | Updated 2 minutes ago

Partly Cloudy
Partly Cloudy
5.0 °F
Feels Like -8 °F
N
7.8
Wind Variable Wind from SW

Today
High -- | Low -- °F
--% Chance of Precip.
Yesterday
High -- | Low -- °F
Precip. -- in
Pressure 30.11 in
Visibility 10.0 miles
Clouds Few 2400 ft
Windchill -8 °F
Dew Point -2 °F
Humidity 71%
Rainfall 0.00 in
Snow Depth Not available.
7:11 AM 5:45 PM
Waxing Crescent, 30% visible
METAR KFIG 131054Z AUTO 28012G21KT 10SM FEW024 M13/M19 A3002 RMK AO2 UPB0959E05SNE0959 SLP196 P0000 T11331194
Pressure 30.11 in
Visibility 10.0 miles
Clouds Few 2400 ft
Windchill -8 °F
Dew Point -2 °F
Humidity 71%
Rainfall 0.00 in
Snow Depth Not available.
7:11 AM 5:45 PM
Waxing Crescent, 30% visible
METAR KFIG 131054Z AUTO 28012G21KT 10SM FEW024 M13/M19 A3002 RMK AO2 UPB0959E05SNE0959 SLP196 P0000 T11331194

10-Day Weather Forecast

Almanac

Astronomy

Feb. 13, 2016 Rise Set
Actual Time
Civil Twilight
Nautical Twilight
Astronomical Twilight
Moon
Length of Visible Light
Length of Day
Tomorrow will be .
, % of the Moon is Illuminated

Today's Extremes

State Highs State Lows

Community

WunderPhotos

Upload Photos

1,892,541 photos uploaded!

WunderBlog® & News

Nearby

Air Quality

  Air Quality AQ Index Pollutant
Not available.

Snow Depth

Station Depth Elevation

Earthquake Activity

City Distance Mag. Time & Date
Minimum magnitude displayed is 2.5.

Coastal Water Temperatures

Place Temperature

Stations

Nearby Weather Stations

Station Location Temp. Windchill Dew Point Humidity Wind Precip. Elev Updated Type
                   

Watches & Warnings

Wind Chill Advisory
Issued: 6:24 AM EST Feb. 13, 2016 – National Weather Service

... Wind Chill Advisory remains in effect until 11 am EST Sunday...
... Winter Weather Advisory is cancelled...

The National Weather Service in State College has cancelled the
Winter Weather Advisory.

* Locations... the Allegheny plateau.

* Hazard types... dangerously cold wind chills.

* Timing... now through Sunday morning.

* Wind chills... 15 to 20 below zero with the lowest readings
tonight.

* Impacts... potential frostbite to exposed skin in just 15 to 30
minutes.


Precautionary/preparedness actions...

If you will be outdoors... dress in layers and wear a hat and
gloves. Young children... the elderly and the homeless are
especially vulnerable to the cold. Appropriate action should be
taken to ensure pets have adequate protection from the cold
temperatures.